sensor_id;sensor_type;location;lat;lon;timestamp;pressure;altitude;pressure_sealevel;temperature;humidity
58753;BME280;44525;46.052;13.610;2022-09-24T00:01:58;100941.41;;;11.16;nan
58753;BME280;44525;46.052;13.610;2022-09-24T00:04:25;100938.16;;;11.14;nan
58753;BME280;44525;46.052;13.610;2022-09-24T00:06:52;100946.03;;;11.16;nan
58753;BME280;44525;46.052;13.610;2022-09-24T00:09:20;100943.59;;;11.19;nan
58753;BME280;44525;46.052;13.610;2022-09-24T00:11:47;100943.31;;;11.16;nan
58753;BME280;44525;46.052;13.610;2022-09-24T00:14:17;100945.19;;;11.20;nan
58753;BME280;44525;46.052;13.610;2022-09-24T00:16:44;100947.09;;;11.25;nan
58753;BME280;44525;46.052;13.610;2022-09-24T00:19:11;100940.03;;;11.19;nan
58753;BME280;44525;46.052;13.610;2022-09-24T00:21:38;100935.44;;;11.19;nan
58753;BME280;44525;46.052;13.610;2022-09-24T00:24:15;100935.16;;;11.16;nan
58753;BME280;44525;46.052;13.610;2022-09-24T00:27:02;100937.31;;;11.19;nan
58753;BME280;44525;46.052;13.610;2022-09-24T00:29:28;100921.69;;;11.45;nan
58753;BME280;44525;46.052;13.610;2022-09-24T00:31:55;100922.25;;;11.42;nan
58753;BME280;44525;46.052;13.610;2022-09-24T00:34:21;100919.03;;;11.40;nan
58753;BME280;44525;46.052;13.610;2022-09-24T00:36:46;100927.16;;;11.45;nan
58753;BME280;44525;46.052;13.610;2022-09-24T00:39:12;100926.00;;;11.56;nan
58753;BME280;44525;46.052;13.610;2022-09-24T00:41:39;100927.91;;;11.56;nan
58753;BME280;44525;46.052;13.610;2022-09-24T00:50:18;100913.78;;;11.99;nan
58753;BME280;44525;46.052;13.610;2022-09-24T00:52:52;100897.84;;;12.16;nan
58753;BME280;44525;46.052;13.610;2022-09-24T00:55:19;100902.41;;;12.26;nan
58753;BME280;44525;46.052;13.610;2022-09-24T00:57:46;100902.88;;;12.04;nan
58753;BME280;44525;46.052;13.610;2022-09-24T01:00:14;100896.81;;;12.12;nan
58753;BME280;44525;46.052;13.610;2022-09-24T01:02:43;100900.38;;;12.07;nan
58753;BME280;44525;46.052;13.610;2022-09-24T01:05:10;100895.56;;;11.99;nan
58753;BME280;44525;46.052;13.610;2022-09-24T01:07:35;100897.66;;;12.07;nan
58753;BME280;44525;46.052;13.610;2022-09-24T01:10:01;100898.84;;;11.96;nan
58753;BME280;44525;46.052;13.610;2022-09-24T01:15:27;100898.47;;;11.68;nan
58753;BME280;44525;46.052;13.610;2022-09-24T01:20:35;100890.13;;;11.94;nan
58753;BME280;44525;46.052;13.610;2022-09-24T01:26:20;100891.16;;;11.58;nan
58753;BME280;44525;46.052;13.610;2022-09-24T01:31:45;100887.41;;;11.49;nan
58753;BME280;44525;46.052;13.610;2022-09-24T01:34:21;100885.34;;;11.75;nan
58753;BME280;44525;46.052;13.610;2022-09-24T01:36:52;100883.06;;;11.88;nan
58753;BME280;44525;46.052;13.610;2022-09-24T01:39:22;100885.63;;;11.74;nan
58753;BME280;44525;46.052;13.610;2022-09-24T01:41:48;100887.06;;;11.61;nan
58753;BME280;44525;46.052;13.610;2022-09-24T01:44:15;100877.94;;;11.41;nan
58753;BME280;44525;46.052;13.610;2022-09-24T01:46:42;100880.16;;;11.29;nan
58753;BME280;44525;46.052;13.610;2022-09-24T01:49:08;100880.97;;;11.35;nan
58753;BME280;44525;46.052;13.610;2022-09-24T01:51:47;100878.28;;;11.30;nan
58753;BME280;44525;46.052;13.610;2022-09-24T01:54:22;100883.06;;;11.48;nan
58753;BME280;44525;46.052;13.610;2022-09-24T01:56:54;100877.06;;;11.51;nan
58753;BME280;44525;46.052;13.610;2022-09-24T01:59:33;100876.63;;;11.34;nan
58753;BME280;44525;46.052;13.610;2022-09-24T02:02:21;100880.72;;;11.31;nan
58753;BME280;44525;46.052;13.610;2022-09-24T02:04:57;100877.59;;;11.53;nan
58753;BME280;44525;46.052;13.610;2022-09-24T02:07:33;100871.91;;;11.50;nan
58753;BME280;44525;46.052;13.610;2022-09-24T02:09:59;100865.03;;;11.63;nan
58753;BME280;44525;46.052;13.610;2022-09-24T02:12:33;100863.16;;;11.92;nan
58753;BME280;44525;46.052;13.610;2022-09-24T02:15:31;100864.72;;;11.69;nan
58753;BME280;44525;46.052;13.610;2022-09-24T02:18:03;100852.41;;;11.77;nan
58753;BME280;44525;46.052;13.610;2022-09-24T02:20:34;100856.84;;;11.68;nan
58753;BME280;44525;46.052;13.610;2022-09-24T02:23:01;100856.56;;;11.69;nan
58753;BME280;44525;46.052;13.610;2022-09-24T02:25:32;100844.84;;;11.69;nan
58753;BME280;44525;46.052;13.610;2022-09-24T02:28:00;100846.47;;;11.70;nan
58753;BME280;44525;46.052;13.610;2022-09-24T02:30:27;100845.97;;;11.68;nan
58753;BME280;44525;46.052;13.610;2022-09-24T02:32:54;100849.69;;;11.77;nan
58753;BME280;44525;46.052;13.610;2022-09-24T02:35:21;100843.69;;;11.75;nan
58753;BME280;44525;46.052;13.610;2022-09-24T02:37:47;100838.47;;;11.84;nan
58753;BME280;44525;46.052;13.610;2022-09-24T02:40:13;100842.25;;;11.88;nan
58753;BME280;44525;46.052;13.610;2022-09-24T02:42:39;100837.94;;;11.82;nan
58753;BME280;44525;46.052;13.610;2022-09-24T02:45:07;100830.72;;;11.67;nan
58753;BME280;44525;46.052;13.610;2022-09-24T02:47:36;100832.44;;;11.57;nan
58753;BME280;44525;46.052;13.610;2022-09-24T02:50:02;100831.50;;;11.72;nan
58753;BME280;44525;46.052;13.610;2022-09-24T02:52:28;100830.66;;;11.77;nan
58753;BME280;44525;46.052;13.610;2022-09-24T02:54:54;100821.19;;;11.69;nan
58753;BME280;44525;46.052;13.610;2022-09-24T02:57:19;100826.72;;;11.54;nan
58753;BME280;44525;46.052;13.610;2022-09-24T02:59:45;100819.19;;;11.80;nan
58753;BME280;44525;46.052;13.610;2022-09-24T03:02:11;100824.00;;;11.88;nan
58753;BME280;44525;46.052;13.610;2022-09-24T03:04:36;100817.47;;;11.89;nan
58753;BME280;44525;46.052;13.610;2022-09-24T03:07:03;100821.63;;;11.82;nan
58753;BME280;44525;46.052;13.610;2022-09-24T03:09:29;100811.06;;;11.75;nan
58753;BME280;44525;46.052;13.610;2022-09-24T03:11:54;100811.50;;;11.87;nan
58753;BME280;44525;46.052;13.610;2022-09-24T03:14:25;100808.09;;;12.06;nan
58753;BME280;44525;46.052;13.610;2022-09-24T03:16:50;100809.66;;;11.83;nan
58753;BME280;44525;46.052;13.610;2022-09-24T03:19:16;100813.69;;;11.85;nan
58753;BME280;44525;46.052;13.610;2022-09-24T03:21:41;100804.50;;;11.81;nan
58753;BME280;44525;46.052;13.610;2022-09-24T03:24:07;100806.75;;;11.69;nan
58753;BME280;44525;46.052;13.610;2022-09-24T03:26:32;100807.66;;;11.59;nan
58753;BME280;44525;46.052;13.610;2022-09-24T03:28:58;100802.75;;;11.61;nan
58753;BME280;44525;46.052;13.610;2022-09-24T03:31:23;100808.19;;;11.61;nan
58753;BME280;44525;46.052;13.610;2022-09-24T03:33:49;100802.22;;;11.59;nan
58753;BME280;44525;46.052;13.610;2022-09-24T03:36:20;100801.69;;;11.57;nan
58753;BME280;44525;46.052;13.610;2022-09-24T03:38:49;100802.88;;;11.75;nan
58753;BME280;44525;46.052;13.610;2022-09-24T03:41:15;100800.66;;;11.82;nan
58753;BME280;44525;46.052;13.610;2022-09-24T03:43:41;100796.41;;;11.71;nan
58753;BME280;44525;46.052;13.610;2022-09-24T03:46:07;100793.56;;;11.86;nan
58753;BME280;44525;46.052;13.610;2022-09-24T03:48:35;100789.78;;;11.82;nan
58753;BME280;44525;46.052;13.610;2022-09-24T03:51:09;100790.63;;;11.77;nan
58753;BME280;44525;46.052;13.610;2022-09-24T03:53:35;100793.59;;;11.81;nan
58753;BME280;44525;46.052;13.610;2022-09-24T03:56:00;100788.28;;;11.66;nan
58753;BME280;44525;46.052;13.610;2022-09-24T03:58:30;100789.19;;;11.56;nan
58753;BME280;44525;46.052;13.610;2022-09-24T04:00:56;100795.38;;;11.62;nan
58753;BME280;44525;46.052;13.610;2022-09-24T04:03:23;100806.25;;;11.62;nan
58753;BME280;44525;46.052;13.610;2022-09-24T04:05:49;100799.78;;;11.57;nan
58753;BME280;44525;46.052;13.610;2022-09-24T04:08:21;100793.97;;;11.69;nan
58753;BME280;44525;46.052;13.610;2022-09-24T04:10:48;100805.53;;;11.51;nan
58753;BME280;44525;46.052;13.610;2022-09-24T04:13:15;100809.91;;;11.47;nan
58753;BME280;44525;46.052;13.610;2022-09-24T04:15:41;100806.13;;;11.43;nan
58753;BME280;44525;46.052;13.610;2022-09-24T04:18:07;100802.59;;;11.42;nan
58753;BME280;44525;46.052;13.610;2022-09-24T04:20:33;100805.16;;;11.23;nan
58753;BME280;44525;46.052;13.610;2022-09-24T04:22:59;100811.38;;;11.34;nan
58753;BME280;44525;46.052;13.610;2022-09-24T04:25:28;100822.41;;;11.03;nan
58753;BME280;44525;46.052;13.610;2022-09-24T04:28:02;100818.88;;;11.02;nan
58753;BME280;44525;46.052;13.610;2022-09-24T04:30:29;100827.31;;;11.01;nan
58753;BME280;44525;46.052;13.610;2022-09-24T04:32:55;100822.97;;;11.00;nan
58753;BME280;44525;46.052;13.610;2022-09-24T04:35:26;100829.16;;;11.11;nan
58753;BME280;44525;46.052;13.610;2022-09-24T04:37:53;100824.53;;;11.11;nan
58753;BME280;44525;46.052;13.610;2022-09-24T04:40:18;100815.28;;;11.12;nan
58753;BME280;44525;46.052;13.610;2022-09-24T04:42:44;100820.16;;;11.15;nan
58753;BME280;44525;46.052;13.610;2022-09-24T04:45:11;100815.25;;;11.17;nan
58753;BME280;44525;46.052;13.610;2022-09-24T04:47:37;100796.28;;;11.12;nan
58753;BME280;44525;46.052;13.610;2022-09-24T04:50:06;100804.38;;;11.22;nan
58753;BME280;44525;46.052;13.610;2022-09-24T04:52:32;100801.03;;;11.31;nan
58753;BME280;44525;46.052;13.610;2022-09-24T04:54:59;100799.00;;;11.07;nan
58753;BME280;44525;46.052;13.610;2022-09-24T04:57:27;100803.75;;;11.31;nan
58753;BME280;44525;46.052;13.610;2022-09-24T04:59:54;100801.66;;;11.17;nan
58753;BME280;44525;46.052;13.610;2022-09-24T05:02:19;100805.09;;;11.33;nan
58753;BME280;44525;46.052;13.610;2022-09-24T05:04:45;100798.53;;;11.39;nan
58753;BME280;44525;46.052;13.610;2022-09-24T05:07:12;100799.72;;;11.28;nan
58753;BME280;44525;46.052;13.610;2022-09-24T05:09:38;100799.16;;;11.31;nan
58753;BME280;44525;46.052;13.610;2022-09-24T05:12:03;100799.38;;;11.40;nan
58753;BME280;44525;46.052;13.610;2022-09-24T05:14:29;100803.00;;;11.25;nan
58753;BME280;44525;46.052;13.610;2022-09-24T05:16:55;100805.56;;;11.06;nan
58753;BME280;44525;46.052;13.610;2022-09-24T05:19:21;100798.41;;;11.15;nan
58753;BME280;44525;46.052;13.610;2022-09-24T05:21:47;100801.88;;;11.31;nan
58753;BME280;44525;46.052;13.610;2022-09-24T05:24:15;100799.72;;;11.28;nan
58753;BME280;44525;46.052;13.610;2022-09-24T05:26:41;100802.16;;;11.24;nan
58753;BME280;44525;46.052;13.610;2022-09-24T05:29:25;100804.81;;;11.40;nan
58753;BME280;44525;46.052;13.610;2022-09-24T05:31:50;100800.91;;;11.51;nan
58753;BME280;44525;46.052;13.610;2022-09-24T05:34:16;100809.09;;;11.46;nan
58753;BME280;44525;46.052;13.610;2022-09-24T05:36:41;100811.63;;;11.32;nan
58753;BME280;44525;46.052;13.610;2022-09-24T05:39:10;100805.16;;;11.23;nan
58753;BME280;44525;46.052;13.610;2022-09-24T05:41:37;100806.34;;;11.12;nan
58753;BME280;44525;46.052;13.610;2022-09-24T05:44:04;100797.91;;;11.13;nan
58753;BME280;44525;46.052;13.610;2022-09-24T05:46:29;100799.72;;;11.28;nan
58753;BME280;44525;46.052;13.610;2022-09-24T05:48:55;100806.94;;;11.43;nan
58753;BME280;44525;46.052;13.610;2022-09-24T05:51:21;100804.22;;;11.43;nan
58753;BME280;44525;46.052;13.610;2022-09-24T05:53:46;100806.94;;;11.43;nan
58753;BME280;44525;46.052;13.610;2022-09-24T05:56:12;100810.75;;;11.47;nan
58753;BME280;44525;46.052;13.610;2022-09-24T05:58:37;100813.47;;;11.42;nan
58753;BME280;44525;46.052;13.610;2022-09-24T06:01:03;100804.94;;;11.59;nan
58753;BME280;44525;46.052;13.610;2022-09-24T06:03:29;100810.41;;;11.54;nan
58753;BME280;44525;46.052;13.610;2022-09-24T06:05:56;100819.94;;;11.51;nan
58753;BME280;44525;46.052;13.610;2022-09-24T06:08:27;100820.47;;;11.53;nan
58753;BME280;44525;46.052;13.610;2022-09-24T06:11:00;100821.84;;;11.51;nan
58753;BME280;44525;46.052;13.610;2022-09-24T06:13:27;100825.44;;;11.46;nan
58753;BME280;44525;46.052;13.610;2022-09-24T06:16:02;100826.22;;;11.47;nan
58753;BME280;44525;46.052;13.610;2022-09-24T06:18:27;100833.75;;;11.60;nan
58753;BME280;44525;46.052;13.610;2022-09-24T06:20:53;100831.22;;;11.74;nan
58753;BME280;44525;46.052;13.610;2022-09-24T06:23:19;100825.84;;;11.64;nan
58753;BME280;44525;46.052;13.610;2022-09-24T06:25:48;100827.06;;;11.47;nan
58753;BME280;44525;46.052;13.610;2022-09-24T06:28:15;100831.59;;;11.57;nan
58753;BME280;44525;46.052;13.610;2022-09-24T06:30:40;100827.94;;;11.77;nan
58753;BME280;44525;46.052;13.610;2022-09-24T06:33:08;100835.47;;;11.85;nan
58753;BME280;44525;46.052;13.610;2022-09-24T06:35:40;100828.84;;;12.02;nan
58753;BME280;44525;46.052;13.610;2022-09-24T06:38:11;100826.34;;;12.05;nan
58753;BME280;44525;46.052;13.610;2022-09-24T06:40:37;100833.03;;;12.18;nan
58753;BME280;44525;46.052;13.610;2022-09-24T06:43:07;100830.56;;;12.22;nan
58753;BME280;44525;46.052;13.610;2022-09-24T06:45:34;100836.16;;;12.36;nan
58753;BME280;44525;46.052;13.610;2022-09-24T06:48:01;100836.94;;;12.36;nan
58753;BME280;44525;46.052;13.610;2022-09-24T06:50:29;100837.66;;;12.47;nan
58753;BME280;44525;46.052;13.610;2022-09-24T06:52:55;100841.09;;;12.58;nan
58753;BME280;44525;46.052;13.610;2022-09-24T06:55:21;100835.84;;;12.61;nan
58753;BME280;44525;46.052;13.610;2022-09-24T06:57:47;100848.69;;;12.61;nan
58753;BME280;44525;46.052;13.610;2022-09-24T07:00:13;100843.53;;;12.59;nan
58753;BME280;44525;46.052;13.610;2022-09-24T07:02:39;100847.22;;;12.69;nan
58753;BME280;44525;46.052;13.610;2022-09-24T07:05:06;100849.66;;;12.70;nan
58753;BME280;44525;46.052;13.610;2022-09-24T07:07:32;100855.03;;;12.75;nan
58753;BME280;44525;46.052;13.610;2022-09-24T07:10:00;100853.84;;;12.62;nan
58753;BME280;44525;46.052;13.610;2022-09-24T07:12:29;100855.13;;;12.70;nan
58753;BME280;44525;46.052;13.610;2022-09-24T07:14:56;100856.03;;;12.60;nan
58753;BME280;44525;46.052;13.610;2022-09-24T07:17:22;100857.59;;;12.67;nan
58753;BME280;44525;46.052;13.610;2022-09-24T07:19:47;100853.72;;;12.73;nan
58753;BME280;44525;46.052;13.610;2022-09-24T07:22:13;100865.31;;;12.84;nan
58753;BME280;44525;46.052;13.610;2022-09-24T07:24:38;100863.69;;;12.82;nan
58753;BME280;44525;46.052;13.610;2022-09-24T07:27:05;100859.94;;;12.78;nan
58753;BME280;44525;46.052;13.610;2022-09-24T07:29:31;100866.78;;;12.76;nan
58753;BME280;44525;46.052;13.610;2022-09-24T07:31:56;100866.22;;;12.74;nan
58753;BME280;44525;46.052;13.610;2022-09-24T07:34:22;100876.72;;;12.86;nan
58753;BME280;44525;46.052;13.610;2022-09-24T07:36:47;100876.84;;;12.75;nan
58753;BME280;44525;46.052;13.610;2022-09-24T07:39:13;100879.81;;;12.79;nan
58753;BME280;44525;46.052;13.610;2022-09-24T07:41:38;100883.34;;;12.79;nan
58753;BME280;44525;46.052;13.610;2022-09-24T07:44:05;100879.16;;;12.87;nan
58753;BME280;44525;46.052;13.610;2022-09-24T07:46:32;100887.19;;;13.03;nan
58753;BME280;44525;46.052;13.610;2022-09-24T07:48:57;100874.81;;;13.10;nan
58753;BME280;44525;46.052;13.610;2022-09-24T07:51:24;100879.38;;;13.15;nan
58753;BME280;44525;46.052;13.610;2022-09-24T07:53:50;100872.31;;;13.14;nan
58753;BME280;44525;46.052;13.610;2022-09-24T07:56:16;100871.72;;;13.17;nan
58753;BME280;44525;46.052;13.610;2022-09-24T07:58:42;100879.25;;;13.25;nan
58753;BME280;44525;46.052;13.610;2022-09-24T08:01:07;100875.94;;;13.28;nan
58753;BME280;44525;46.052;13.610;2022-09-24T08:03:33;100867.44;;;13.35;nan
58753;BME280;44525;46.052;13.610;2022-09-24T08:05:58;100868.97;;;13.41;nan
58753;BME280;44525;46.052;13.610;2022-09-24T08:08:26;100865.19;;;13.37;nan
58753;BME280;44525;46.052;13.610;2022-09-24T08:10:52;100876.97;;;13.32;nan
58753;BME280;44525;46.052;13.610;2022-09-24T08:13:18;100866.84;;;13.33;nan
58753;BME280;44525;46.052;13.610;2022-09-24T08:15:43;100862.78;;;13.36;nan
58753;BME280;44525;46.052;13.610;2022-09-24T08:18:09;100861.97;;;13.35;nan
58753;BME280;44525;46.052;13.610;2022-09-24T08:20:37;100859.69;;;13.42;nan
58753;BME280;44525;46.052;13.610;2022-09-24T08:23:05;100864.06;;;13.19;nan
58753;BME280;44525;46.052;13.610;2022-09-24T08:25:31;100862.19;;;13.39;nan
58753;BME280;44525;46.052;13.610;2022-09-24T08:28:01;100860.28;;;13.58;nan
58753;BME280;44525;46.052;13.610;2022-09-24T08:30:27;100860.34;;;13.72;nan
58753;BME280;44525;46.052;13.610;2022-09-24T08:32:52;100865.34;;;13.84;nan
58753;BME280;44525;46.052;13.610;2022-09-24T08:35:18;100866.66;;;13.86;nan
58753;BME280;44525;46.052;13.610;2022-09-24T08:37:43;100869.69;;;13.85;nan
58753;BME280;44525;46.052;13.610;2022-09-24T08:40:25;100865.38;;;13.98;nan
58753;BME280;44525;46.052;13.610;2022-09-24T08:43:04;100864.53;;;14.16;nan
58753;BME280;44525;46.052;13.610;2022-09-24T08:45:41;100870.00;;;14.16;nan
58753;BME280;44525;46.052;13.610;2022-09-24T08:48:29;100862.78;;;14.07;nan
58753;BME280;44525;46.052;13.610;2022-09-24T08:51:02;100862.53;;;14.22;nan
58753;BME280;44525;46.052;13.610;2022-09-24T08:56:48;100866.97;;;14.32;nan
58753;BME280;44525;46.052;13.610;2022-09-24T08:59:26;100857.13;;;14.17;nan
58753;BME280;44525;46.052;13.610;2022-09-24T09:07:22;100861.56;;;14.46;nan
58753;BME280;44525;46.052;13.610;2022-09-24T09:09:56;100856.41;;;14.58;nan
58753;BME280;44525;46.052;13.610;2022-09-24T09:15:08;100865.16;;;14.74;nan
58753;BME280;44525;46.052;13.610;2022-09-24T09:17:50;100862.09;;;14.76;nan
58753;BME280;44525;46.052;13.610;2022-09-24T09:20:23;100865.16;;;14.74;nan
58753;BME280;44525;46.052;13.610;2022-09-24T09:22:52;100856.63;;;14.89;nan
58753;BME280;44525;46.052;13.610;2022-09-24T09:25:21;100854.59;;;14.95;nan
58753;BME280;44525;46.052;13.610;2022-09-24T09:28:09;100858.47;;;14.94;nan
58753;BME280;44525;46.052;13.610;2022-09-24T09:44:40;100855.72;;;15.08;nan
58753;BME280;44525;46.052;13.610;2022-09-24T09:47:21;100854.69;;;15.18;nan
58753;BME280;44525;46.052;13.610;2022-09-24T09:49:52;100854.56;;;15.23;nan
58753;BME280;44525;46.052;13.610;2022-09-24T09:52:22;100853.47;;;15.24;nan
58753;BME280;44525;46.052;13.610;2022-09-24T09:54:49;100847.69;;;15.25;nan
58753;BME280;44525;46.052;13.610;2022-09-24T09:57:18;100840.56;;;15.24;nan
58753;BME280;44525;46.052;13.610;2022-09-24T09:59:48;100842.06;;;15.31;nan
58753;BME280;44525;46.052;13.610;2022-09-24T10:02:23;100848.75;;;15.38;nan
58753;BME280;44525;46.052;13.610;2022-09-24T10:05:01;100837.81;;;15.38;nan
58753;BME280;44525;46.052;13.610;2022-09-24T10:07:27;100837.19;;;15.41;nan
58753;BME280;44525;46.052;13.610;2022-09-24T10:12:37;100839.81;;;15.47;nan
58753;BME280;44525;46.052;13.610;2022-09-24T10:15:14;100837.75;;;15.52;nan
58753;BME280;44525;46.052;13.610;2022-09-24T10:17:41;100833.41;;;15.51;nan
58753;BME280;44525;46.052;13.610;2022-09-24T10:20:14;100829.38;;;15.49;nan
58753;BME280;44525;46.052;13.610;2022-09-24T10:22:48;100823.38;;;15.47;nan
58753;BME280;44525;46.052;13.610;2022-09-24T10:25:21;100825.41;;;15.55;nan
58753;BME280;44525;46.052;13.610;2022-09-24T10:28:01;100821.72;;;15.59;nan
58753;BME280;44525;46.052;13.610;2022-09-24T10:30:58;100813.38;;;15.65;nan
58753;BME280;44525;46.052;13.610;2022-09-24T10:33:25;100820.28;;;15.62;nan
58753;BME280;44525;46.052;13.610;2022-09-24T10:36:05;100822.53;;;15.60;nan
58753;BME280;44525;46.052;13.610;2022-09-24T10:38:32;100822.34;;;15.56;nan
58753;BME280;44525;46.052;13.610;2022-09-24T10:40:57;100831.34;;;15.57;nan
58753;BME280;44525;46.052;13.610;2022-09-24T10:43:23;100826.00;;;15.52;nan
58753;BME280;44525;46.052;13.610;2022-09-24T10:49:06;100824.69;;;15.26;nan
58753;BME280;44525;46.052;13.610;2022-09-24T10:57:29;100821.25;;;15.07;nan
58753;BME280;44525;46.052;13.610;2022-09-24T11:00:02;100821.78;;;14.95;nan
58753;BME280;44525;46.052;13.610;2022-09-24T11:02:57;100813.91;;;14.80;nan
58753;BME280;44525;46.052;13.610;2022-09-24T11:06:01;100820.88;;;14.86;nan
58753;BME280;44525;46.052;13.610;2022-09-24T11:20:08;100815.91;;;14.60;nan
58753;BME280;44525;46.052;13.610;2022-09-24T11:28:16;100811.16;;;14.38;nan
58753;BME280;44525;46.052;13.610;2022-09-24T11:50:18;100796.88;;;14.41;nan
58753;BME280;44525;46.052;13.610;2022-09-24T11:52:55;100801.41;;;14.60;nan
58753;BME280;44525;46.052;13.610;2022-09-24T11:55:57;100801.94;;;14.48;nan
58753;BME280;44525;46.052;13.610;2022-09-24T12:01:07;100803.34;;;14.45;nan
58753;BME280;44525;46.052;13.610;2022-09-24T12:03:41;100793.53;;;14.44;nan
58753;BME280;44525;46.052;13.610;2022-09-24T12:06:12;100789.47;;;14.42;nan
58753;BME280;44525;46.052;13.610;2022-09-24T12:08:56;100796.28;;;14.44;nan
58753;BME280;44525;46.052;13.610;2022-09-24T12:11:44;100798.78;;;14.41;nan
58753;BME280;44525;46.052;13.610;2022-09-24T12:14:29;100802.03;;;14.43;nan
58753;BME280;44525;46.052;13.610;2022-09-24T12:17:01;100797.28;;;14.34;nan
58753;BME280;44525;46.052;13.610;2022-09-24T12:19:35;100795.94;;;14.32;nan
58753;BME280;44525;46.052;13.610;2022-09-24T12:22:03;100788.56;;;14.32;nan
58753;BME280;44525;46.052;13.610;2022-09-24T12:24:43;100789.78;;;14.40;nan
58753;BME280;44525;46.052;13.610;2022-09-24T12:27:13;100783.41;;;14.31;nan
58753;BME280;44525;46.052;13.610;2022-09-24T12:29:50;100780.38;;;14.32;nan
58753;BME280;44525;46.052;13.610;2022-09-24T12:33:05;100778.25;;;14.29;nan
58753;BME280;44525;46.052;13.610;2022-09-24T12:35:39;100776.31;;;14.44;nan
58753;BME280;44525;46.052;13.610;2022-09-24T12:38:20;100778.97;;;14.49;nan
58753;BME280;44525;46.052;13.610;2022-09-24T12:54:37;100759.13;;;14.71;nan
58753;BME280;44525;46.052;13.610;2022-09-24T12:57:23;100757.50;;;14.84;nan
58753;BME280;44525;46.052;13.610;2022-09-24T13:02:25;100758.00;;;14.86;nan
58753;BME280;44525;46.052;13.610;2022-09-24T13:07:59;100751.81;;;14.94;nan
58753;BME280;44525;46.052;13.610;2022-09-24T13:10:28;100753.41;;;14.95;nan
58753;BME280;44525;46.052;13.610;2022-09-24T13:12:55;100754.41;;;14.99;nan
58753;BME280;44525;46.052;13.610;2022-09-24T13:15:34;100755.81;;;14.97;nan
58753;BME280;44525;46.052;13.610;2022-09-24T13:20:40;100750.19;;;14.79;nan
58753;BME280;44525;46.052;13.610;2022-09-24T13:23:28;100750.41;;;14.83;nan
58753;BME280;44525;46.052;13.610;2022-09-24T13:26:01;100749.97;;;14.89;nan
58753;BME280;44525;46.052;13.610;2022-09-24T13:33:53;100742.06;;;15.02;nan
58753;BME280;44525;46.052;13.610;2022-09-24T13:36:39;100727.00;;;15.13;nan
58753;BME280;44525;46.052;13.610;2022-09-24T13:46:58;100727.53;;;15.01;nan
58753;BME280;44525;46.052;13.610;2022-09-24T13:49:27;100719.47;;;14.96;nan
58753;BME280;44525;46.052;13.610;2022-09-24T13:52:34;100718.47;;;14.92;nan
58753;BME280;44525;46.052;13.610;2022-09-24T13:55:07;100712.91;;;14.83;nan
58753;BME280;44525;46.052;13.610;2022-09-24T13:57:46;100714.38;;;14.81;nan
58753;BME280;44525;46.052;13.610;2022-09-24T14:00:16;100707.03;;;14.90;nan
58753;BME280;44525;46.052;13.610;2022-09-24T14:03:00;100702.25;;;14.96;nan
58753;BME280;44525;46.052;13.610;2022-09-24T14:05:28;100695.03;;;15.00;nan
58753;BME280;44525;46.052;13.610;2022-09-24T14:08:03;100694.72;;;15.01;nan
58753;BME280;44525;46.052;13.610;2022-09-24T14:10:30;100697.34;;;15.06;nan
58753;BME280;44525;46.052;13.610;2022-09-24T14:15:33;100691.94;;;15.15;nan
58753;BME280;44525;46.052;13.610;2022-09-24T14:18:00;100687.16;;;15.21;nan
58753;BME280;44525;46.052;13.610;2022-09-24T14:20:29;100689.44;;;15.27;nan
58753;BME280;44525;46.052;13.610;2022-09-24T14:22:57;100696.34;;;15.25;nan
58753;BME280;44525;46.052;13.610;2022-09-24T14:25:28;100689.41;;;15.19;nan
58753;BME280;44525;46.052;13.610;2022-09-24T14:27:56;100680.81;;;15.12;nan
58753;BME280;44525;46.052;13.610;2022-09-24T14:30:25;100679.22;;;15.11;nan
58753;BME280;44525;46.052;13.610;2022-09-24T14:33:04;100680.38;;;15.18;nan
58753;BME280;44525;46.052;13.610;2022-09-24T14:35:38;100679.59;;;15.18;nan
58753;BME280;44525;46.052;13.610;2022-09-24T14:38:10;100686.91;;;15.31;nan
58753;BME280;44525;46.052;13.610;2022-09-24T14:40:41;100684.19;;;15.31;nan
58753;BME280;44525;46.052;13.610;2022-09-24T14:43:16;100670.66;;;15.35;nan
58753;BME280;44525;46.052;13.610;2022-09-24T14:45:43;100674.56;;;15.42;nan
58753;BME280;44525;46.052;13.610;2022-09-24T14:48:28;100672.84;;;15.47;nan
58753;BME280;44525;46.052;13.610;2022-09-24T14:50:53;100669.63;;;15.44;nan
58753;BME280;44525;46.052;13.610;2022-09-24T14:53:30;100663.63;;;15.42;nan
58753;BME280;44525;46.052;13.610;2022-09-24T14:55:58;100666.25;;;15.48;nan
58753;BME280;44525;46.052;13.610;2022-09-24T15:00:58;100667.25;;;15.52;nan
58753;BME280;44525;46.052;13.610;2022-09-24T15:03:42;100671.72;;;15.48;nan
58753;BME280;44525;46.052;13.610;2022-09-24T15:06:29;100668.47;;;15.46;nan
58753;BME280;44525;46.052;13.610;2022-09-24T15:09:00;100673.94;;;15.46;nan
58753;BME280;44525;46.052;13.610;2022-09-24T15:11:29;100682.47;;;15.44;nan
58753;BME280;44525;46.052;13.610;2022-09-24T15:16:34;100685.47;;;15.34;nan
58753;BME280;44525;46.052;13.610;2022-09-24T15:19:18;100687.53;;;15.28;nan
58753;BME280;44525;46.052;13.610;2022-09-24T15:21:45;100688.97;;;15.25;nan
58753;BME280;44525;46.052;13.610;2022-09-24T15:24:13;100689.59;;;15.22;nan
58753;BME280;44525;46.052;13.610;2022-09-24T15:26:41;100690.00;;;15.16;nan
58753;BME280;44525;46.052;13.610;2022-09-24T15:29:10;100685.13;;;15.26;nan
58753;BME280;44525;46.052;13.610;2022-09-24T15:31:41;100688.44;;;15.23;nan
58753;BME280;44525;46.052;13.610;2022-09-24T15:34:07;100678.97;;;15.21;nan